Evergreen, Colorado
Current Conditions -  °F | °C
As of 2:15 AM on Thursday 23 Oct 2014 (Local Time) from KBJC Reporting Station
Clear Clear  
Wind Chill: 46°   Ceiling: Unl
Heat Index: 48°   Visibility: 10mi
Dew Point: 36°   Wind: 6mph
Humidity: 62%   Direction: 310°NW
Pressure: 30.17"   Gusts: NA
Location:  39.63°N, 105.31°W
Report Text: KBJC 230815Z AUTO 31005KT 10SM CLR 09/02 A3017 RMK AO2
Loading
Personal Weather Stations






























Interactive Weather Map New forecast layout! Learn more

10-Day Weather Forecast

Advertisements
Track Severe Weather on mobile